Onaga, KS (66521)

3:54 AM CST on January 20, 2017 (GMT -0600)
Green House | | Change Station
Active Advisory: Dense Fog Advisory

Elev 1296 ft 39.62 °N, 95.88 °W | Updated 25 seconds ago

Fog
Fog
41.1 °F
Feels Like 41 °F
N
0.0
Wind Variable Wind from SSW

Today
High -- | Low -- °F
--% Chance of Precip.
Yesterday
High -- | Low -- °F
Precip. -- in
Pressure 29.56 in
Visibility 0.2 miles
Clouds
Windchill 41 °F
Dew Point 40 °F
Humidity 98%
Rainfall 0.00 in
Snow Depth Not available.
7:40 AM 5:31 PM
Last Quarter, 45% visible
METAR KMHK 200852Z AUTO 04004KT 1/4SM FG VV002 07/06 A2955 RMK AO2 SLP008 T00670061 58013
Pressure 29.56 in
Visibility 0.2 miles
Clouds
Windchill 41 °F
Dew Point 40 °F
Humidity 98%
Rainfall 0.00 in
Snow Depth Not available.
7:40 AM 5:31 PM
Last Quarter, 45% visible
METAR KMHK 200852Z AUTO 04004KT 1/4SM FG VV002 07/06 A2955 RMK AO2 SLP008 T00670061 58013

Get Your Daily Forecast Email!

Thanks for signing up!

Be on the lookout for a verification email in your inbox.

You'll start receiving the daily forecast at 8 AM.

×

10-Day Weather Forecast

Almanac

Astronomy

Jan. 20, 2017 Rise Set
Actual Time
Civil Twilight
Nautical Twilight
Astronomical Twilight
Moon
Length of Visible Light
Length of Day
Tomorrow will be .
, % of the Moon is Illuminated

Today's Extremes

State Highs State Lows

Community

WunderPhotos

Upload Photos

1,962,540 photos uploaded!

WunderBlog® & News

Nearby

Air Quality

  Air Quality AQ Index Pollutant
Not available.

Snow Depth

Station Depth Elevation

Earthquake Activity

City Distance Mag. Time & Date
Minimum magnitude displayed is 2.5.

Coastal Water Temperatures

Place Temperature

Stations

Nearby Weather Stations

Station Location Temp. Windchill Dew Point Humidity Wind Precip. Elev Updated Type
                   

Watches & Warnings

Dense Fog Advisory
Issued: 3:29 AM CST Jan. 20, 2017 – National Weather Service

... Dense fog advisory remains in effect until 10 am CST this
morning...

* visibility... widespread visibility reductions of a quarter of
a mile or less can be expected.

* Impacts... reduced visibilities from dense fog will create
hazardous driving conditions.

Precautionary/preparedness actions...

A dense fog advisory means visibilities will frequently be
reduced to less than one quarter mile. If driving... slow down...
use your headlights... and leave plenty of distance ahead of you.